Time;durP1;ratioP1;P1;durP2;ratioP2;P2;SDS_P1;SDS_P2;PMS_P1;PMS_P2;Temp;Humidity;BMP_temperature;BMP_pressure;BME280_temperature;BME280_humidity;BME280_pressure;Samples;Min_cycle;Max_cycle;Signal;HPM_P1;HPM_P2
2021/10/02 00:31:21;;;;;;;27.13;14.27;;;;;;;;;;5035750;28;20657;-74
2021/10/02 00:44:47;;;;;;;20.13;12.90;;;;;;;;;;5026955;28;20568;-74
2021/10/02 00:47:14;;;;;;;18.42;13.20;;;;;;;;;;5031607;28;20029;-73
2021/10/02 00:49:42;;;;;;;15.95;13.30;;;;;;;;;;5037234;28;20043;-74
2021/10/02 00:52:09;;;;;;;18.38;13.57;;;;;;;;;;5032741;28;20675;-73
2021/10/02 00:54:36;;;;;;;21.13;12.75;;;;;;;;;;5030950;28;20021;-73
2021/10/02 00:57:02;;;;;;;19.83;12.93;;;;;;;;;;5030895;28;20364;-74
2021/10/02 00:59:30;;;;;;;18.20;13.32;;;;;;;;;;5033749;28;20025;-74
2021/10/02 01:01:59;;;;;;;15.20;13.30;;;;;;;;;;5030876;28;20117;-73
2021/10/02 01:04:44;;;;;;;23.42;14.05;;;;;;;;;;5014400;28;20558;-74
2021/10/02 01:07:10;;;;;;;24.02;11.93;;;;;;;;;;5034081;28;20414;-73
2021/10/02 01:09:36;;;;;;;20.50;12.20;;;;;;;;;;5036591;28;20029;-73
2021/10/02 01:12:15;;;;;;;14.20;12.30;;;;;;;;;;5036472;28;20755;-73
2021/10/02 01:14:46;;;;;;;19.00;12.98;;;;;;;;;;5034422;28;20517;-73
2021/10/02 01:17:17;;;;;;;19.40;13.38;;;;;;;;;;5035688;28;20029;-74
2021/10/02 01:19:56;;;;;;;24.63;13.98;;;;;;;;;;5035816;28;20910;-74
2021/10/02 01:22:34;;;;;;;23.55;13.30;;;;;;;;;;5035556;28;20042;-74
2021/10/02 01:25:14;;;;;;;16.25;12.18;;;;;;;;;;5033784;28;20037;-73
2021/10/02 01:27:51;;;;;;;15.63;12.10;;;;;;;;;;5039115;28;20092;-73
2021/10/02 01:30:34;;;;;;;16.98;11.85;;;;;;;;;;5035489;28;20034;-73
2021/10/02 01:33:21;;;;;;;22.80;13.13;;;;;;;;;;5035665;28;20469;-74
2021/10/02 01:35:56;;;;;;;18.25;11.82;;;;;;;;;;5036689;28;20029;-73
2021/10/02 01:49:24;;;;;;;19.33;13.10;;;;;;;;;;5034601;28;20048;-73
2021/10/02 01:51:51;;;;;;;17.52;12.95;;;;;;;;;;5033972;28;20505;-73
2021/10/02 01:54:17;;;;;;;17.52;13.57;;;;;;;;;;5036348;28;20105;-74
2021/10/02 01:56:43;;;;;;;17.00;12.30;;;;;;;;;;5036926;28;20497;-74
2021/10/02 01:59:10;;;;;;;18.40;12.32;;;;;;;;;;5033620;28;20037;-74
2021/10/02 02:01:39;;;;;;;16.35;12.88;;;;;;;;;;5035203;28;20073;-74
2021/10/02 02:04:06;;;;;;;18.20;12.35;;;;;;;;;;5033871;28;20059;-74
2021/10/02 02:06:33;;;;;;;14.88;10.95;;;;;;;;;;5036546;28;20036;-74
2021/10/02 02:09:00;;;;;;;20.80;11.90;;;;;;;;;;5033953;28;20402;-73
2021/10/02 02:11:27;;;;;;;15.52;12.85;;;;;;;;;;5031913;28;20021;-73
2021/10/02 02:13:54;;;;;;;16.88;12.02;;;;;;;;;;5035064;28;20029;-73
2021/10/02 02:16:20;;;;;;;18.60;13.00;;;;;;;;;;5033502;28;20601;-73
2021/10/02 02:18:48;;;;;;;16.17;12.55;;;;;;;;;;5035916;28;20025;-74
2021/10/02 02:21:14;;;;;;;23.38;12.43;;;;;;;;;;5033130;28;20025;-74
2021/10/02 02:23:41;;;;;;;20.58;12.88;;;;;;;;;;5035700;28;20111;-74
2021/10/02 02:26:09;;;;;;;19.52;13.65;;;;;;;;;;5033105;28;20517;-73
2021/10/02 02:28:35;;;;;;;19.00;12.43;;;;;;;;;;5034089;28;20087;-73
2021/10/02 02:31:02;;;;;;;15.30;11.98;;;;;;;;;;5034604;28;20037;-73
2021/10/02 02:33:28;;;;;;;16.27;11.85;;;;;;;;;;5036458;28;20029;-73
2021/10/02 02:35:54;;;;;;;19.55;12.40;;;;;;;;;;5033379;28;20033;-74
2021/10/02 02:38:21;;;;;;;16.52;12.52;;;;;;;;;;5032589;28;20018;-73
2021/10/02 02:40:50;;;;;;;15.20;11.57;;;;;;;;;;5035741;28;20444;-73
2021/10/02 02:43:16;;;;;;;15.40;12.45;;;;;;;;;;5032876;28;20053;-73
2021/10/02 02:45:46;;;;;;;16.05;11.23;;;;;;;;;;5033814;28;20033;-73
2021/10/02 02:48:20;;;;;;;13.93;11.90;;;;;;;;;;5030257;28;20025;-74
2021/10/02 02:50:52;;;;;;;18.52;11.40;;;;;;;;;;5034425;28;20039;-74
2021/10/02 02:53:25;;;;;;;19.33;12.98;;;;;;;;;;5034966;28;20021;-73
2021/10/02 02:56:11;;;;;;;14.68;11.65;;;;;;;;;;5033588;28;20033;-74
2021/10/02 02:58:40;;;;;;;20.90;12.43;;;;;;;;;;5017984;28;20114;-73
2021/10/02 03:01:07;;;;;;;14.50;12.63;;;;;;;;;;5033825;28;20033;-73
2021/10/02 03:03:35;;;;;;;14.82;12.13;;;;;;;;;;5034628;28;20063;-74
2021/10/02 03:06:04;;;;;;;18.15;12.35;;;;;;;;;;5030271;28;20746;-73
2021/10/02 03:08:44;;;;;;;21.05;12.65;;;;;;;;;;5032694;28;20361;-73
2021/10/02 03:11:11;;;;;;;16.25;12.20;;;;;;;;;;5038794;28;20048;-73
2021/10/02 03:13:38;;;;;;;16.45;12.52;;;;;;;;;;5031893;28;20021;-74
2021/10/02 03:16:07;;;;;;;17.30;12.85;;;;;;;;;;5032697;28;20025;-74
2021/10/02 03:18:35;;;;;;;19.15;12.27;;;;;;;;;;5033344;28;20029;-74
2021/10/02 03:21:01;;;;;;;15.95;12.68;;;;;;;;;;5033283;28;20029;-74
2021/10/02 03:23:29;;;;;;;19.17;12.18;;;;;;;;;;5034456;28;20045;-74
2021/10/02 03:25:55;;;;;;;21.25;11.98;;;;;;;;;;5030825;28;20041;-74
2021/10/02 03:28:22;;;;;;;18.98;11.57;;;;;;;;;;5029743;28;20539;-74
2021/10/02 03:30:48;;;;;;;15.77;11.02;;;;;;;;;;5032969;28;20033;-74
2021/10/02 03:33:15;;;;;;;17.65;11.98;;;;;;;;;;5034654;28;20154;-73
2021/10/02 03:35:41;;;;;;;18.83;11.90;;;;;;;;;;5030307;28;20113;-73
2021/10/02 03:38:07;;;;;;;14.35;11.65;;;;;;;;;;5034821;28;20025;-73
2021/10/02 03:40:34;;;;;;;14.65;12.32;;;;;;;;;;5031512;28;20034;-74
2021/10/02 03:43:00;;;;;;;18.48;12.15;;;;;;;;;;5033442;28;20132;-74
2021/10/02 03:45:28;;;;;;;17.23;11.30;;;;;;;;;;5031154;28;20503;-74
2021/10/02 03:47:54;;;;;;;26.15;12.40;;;;;;;;;;5033508;28;20384;-74
2021/10/02 03:50:20;;;;;;;13.15;11.10;;;;;;;;;;5031865;28;20145;-74
2021/10/02 03:52:46;;;;;;;18.17;12.50;;;;;;;;;;5034787;28;20477;-74
2021/10/02 03:55:14;;;;;;;18.33;11.25;;;;;;;;;;5033091;28;20040;-73
2021/10/02 03:57:40;;;;;;;20.30;12.38;;;;;;;;;;5031937;28;20037;-74
2021/10/02 04:00:08;;;;;;;13.15;11.25;;;;;;;;;;5032567;28;20028;-74
2021/10/02 04:02:34;;;;;;;19.33;12.18;;;;;;;;;;5033013;28;20796;-74
2021/10/02 04:05:01;;;;;;;14.93;11.07;;;;;;;;;;5030769;28;20579;-74
2021/10/02 04:07:27;;;;;;;16.40;11.90;;;;;;;;;;5031285;28;20021;-74
2021/10/02 04:09:53;;;;;;;14.80;11.80;;;;;;;;;;5034314;28;20515;-74
2021/10/02 04:12:19;;;;;;;20.02;11.57;;;;;;;;;;5036391;28;20056;-74
2021/10/02 04:14:48;;;;;;;17.48;12.13;;;;;;;;;;5031928;28;20389;-73
2021/10/02 04:17:15;;;;;;;18.63;11.75;;;;;;;;;;5032929;28;20025;-73
2021/10/02 04:19:42;;;;;;;16.63;11.27;;;;;;;;;;5030960;28;20025;-74
2021/10/02 04:22:09;;;;;;;15.13;11.23;;;;;;;;;;5034356;28;20102;-73
2021/10/02 04:24:35;;;;;;;13.57;10.48;;;;;;;;;;5032502;28;20048;-73
2021/10/02 04:27:01;;;;;;;19.33;11.52;;;;;;;;;;5029506;28;20072;-74
2021/10/02 04:29:28;;;;;;;18.77;11.77;;;;;;;;;;5040356;28;20079;-73
2021/10/02 04:31:54;;;;;;;16.35;11.32;;;;;;;;;;5031030;28;20025;-74
2021/10/02 04:34:20;;;;;;;14.93;10.35;;;;;;;;;;5037072;28;20037;-74
2021/10/02 04:36:47;;;;;;;14.18;10.48;;;;;;;;;;5032820;28;20041;-72
2021/10/02 04:39:13;;;;;;;16.90;10.77;;;;;;;;;;5031239;28;20388;-74
2021/10/02 04:41:39;;;;;;;15.77;11.35;;;;;;;;;;5031771;28;20580;-73
2021/10/02 04:44:05;;;;;;;16.33;11.63;;;;;;;;;;5033733;28;20499;-73
2021/10/02 04:46:31;;;;;;;13.25;11.00;;;;;;;;;;5032497;28;20034;-73
2021/10/02 04:48:57;;;;;;;23.13;11.68;;;;;;;;;;5036741;28;20071;-74
2021/10/02 04:51:24;;;;;;;13.50;11.25;;;;;;;;;;5031192;28;20025;-74
2021/10/02 04:53:50;;;;;;;16.40;11.55;;;;;;;;;;5035495;28;20034;-73
2021/10/02 04:56:17;;;;;;;17.13;10.88;;;;;;;;;;5034096;28;20018;-74
2021/10/02 04:58:44;;;;;;;17.15;11.75;;;;;;;;;;5034247;28;20025;-74
2021/10/02 05:01:11;;;;;;;16.63;11.40;;;;;;;;;;5031621;28;20037;-73
2021/10/02 05:03:38;;;;;;;15.95;11.38;;;;;;;;;;5035304;28;20036;-74
2021/10/02 05:06:05;;;;;;;14.55;10.40;;;;;;;;;;5032016;28;20037;-73
2021/10/02 05:08:31;;;;;;;13.05;11.32;;;;;;;;;;5035587;28;20025;-73
2021/10/02 05:10:58;;;;;;;15.55;11.63;;;;;;;;;;5033685;28;20090;-73
2021/10/02 05:13:24;;;;;;;14.55;11.15;;;;;;;;;;5029990;28;20029;-73
2021/10/02 05:15:50;;;;;;;14.40;10.95;;;;;;;;;;5035640;28;20131;-72
2021/10/02 05:18:16;;;;;;;16.30;11.95;;;;;;;;;;5032010;28;20095;-73
2021/10/02 05:20:43;;;;;;;16.10;10.95;;;;;;;;;;5034648;28;20028;-73
2021/10/02 05:23:09;;;;;;;16.08;12.52;;;;;;;;;;5032152;28;20021;-74
2021/10/02 05:25:35;;;;;;;18.45;11.93;;;;;;;;;;5029017;28;20135;-74
2021/10/02 05:28:01;;;;;;;15.57;11.25;;;;;;;;;;5030353;28;20372;-74
2021/10/02 05:30:28;;;;;;;15.10;11.48;;;;;;;;;;5030443;28;20055;-75
2021/10/02 05:32:54;;;;;;;16.70;11.52;;;;;;;;;;5031976;28;20030;-74
2021/10/02 05:35:20;;;;;;;18.50;11.18;;;;;;;;;;5033405;28;20492;-74
2021/10/02 05:37:47;;;;;;;21.02;11.77;;;;;;;;;;5032134;28;20064;-74
2021/10/02 05:40:13;;;;;;;14.30;11.73;;;;;;;;;;5031233;28;20079;-74
2021/10/02 05:42:39;;;;;;;18.65;11.65;;;;;;;;;;5027342;28;20437;-74
2021/10/02 05:45:06;;;;;;;16.83;11.30;;;;;;;;;;5032080;28;20036;-74
2021/10/02 05:47:33;;;;;;;15.52;11.73;;;;;;;;;;5037165;28;20051;-74
2021/10/02 05:49:59;;;;;;;17.67;11.85;;;;;;;;;;5027882;28;20029;-74
2021/10/02 05:52:26;;;;;;;15.80;11.50;;;;;;;;;;5031825;28;20366;-74
2021/10/02 05:54:52;;;;;;;17.80;12.50;;;;;;;;;;5040111;28;20056;-74
2021/10/02 05:57:18;;;;;;;15.95;12.13;;;;;;;;;;5033768;28;20029;-74
2021/10/02 05:59:46;;;;;;;19.13;12.57;;;;;;;;;;5036504;28;20025;-75
2021/10/02 06:02:12;;;;;;;16.35;12.20;;;;;;;;;;5033267;28;20033;-73
2021/10/02 06:04:39;;;;;;;15.90;11.88;;;;;;;;;;5036337;28;20036;-75
2021/10/02 06:07:05;;;;;;;19.55;12.50;;;;;;;;;;5038912;28;20037;-75
2021/10/02 06:09:31;;;;;;;17.08;12.15;;;;;;;;;;5033797;28;20037;-74
2021/10/02 06:11:57;;;;;;;15.52;11.57;;;;;;;;;;5037495;28;20670;-75
2021/10/02 06:14:23;;;;;;;17.80;12.65;;;;;;;;;;5031811;28;20131;-74
2021/10/02 06:16:50;;;;;;;17.33;12.43;;;;;;;;;;5036926;28;20033;-74
2021/10/02 06:19:17;;;;;;;16.63;12.18;;;;;;;;;;5035688;28;20505;-74
2021/10/02 06:21:43;;;;;;;15.25;13.07;;;;;;;;;;5016701;28;20640;-74
2021/10/02 06:24:10;;;;;;;15.45;12.70;;;;;;;;;;5016783;28;20076;-74
2021/10/02 06:26:37;;;;;;;16.67;12.02;;;;;;;;;;5031844;28;20033;-74
2021/10/02 06:29:04;;;;;;;16.60;11.82;;;;;;;;;;5037636;28;20104;-75
2021/10/02 06:31:30;;;;;;;17.15;12.43;;;;;;;;;;5037152;28;20057;-76
2021/10/02 06:33:56;;;;;;;17.95;12.63;;;;;;;;;;5034610;28;20837;-73
2021/10/02 06:36:22;;;;;;;16.00;13.00;;;;;;;;;;5039880;28;20464;-73
2021/10/02 06:38:49;;;;;;;15.55;12.02;;;;;;;;;;5033876;28;20132;-73
2021/10/02 06:41:15;;;;;;;16.77;12.70;;;;;;;;;;5035416;28;20133;-72
2021/10/02 06:43:41;;;;;;;14.15;12.30;;;;;;;;;;5034225;28;20504;-72
2021/10/02 06:46:07;;;;;;;15.55;11.90;;;;;;;;;;5019445;28;20029;-72
2021/10/02 06:48:34;;;;;;;19.55;12.23;;;;;;;;;;5036819;28;20033;-74
2021/10/02 06:51:00;;;;;;;15.82;12.77;;;;;;;;;;5034625;28;20061;-71
2021/10/02 06:53:26;;;;;;;20.00;13.20;;;;;;;;;;5035100;28;20104;-73
2021/10/02 06:55:52;;;;;;;19.70;12.82;;;;;;;;;;5036888;28;20048;-72
2021/10/02 06:58:18;;;;;;;17.77;13.18;;;;;;;;;;5033796;28;20029;-72
2021/10/02 07:00:44;;;;;;;14.05;12.40;;;;;;;;;;5033043;28;20025;-75
2021/10/02 07:03:11;;;;;;;18.17;13.07;;;;;;;;;;5036628;28;20397;-73
2021/10/02 07:05:37;;;;;;;18.88;13.70;;;;;;;;;;5021094;28;20447;-73
2021/10/02 07:08:03;;;;;;;13.38;11.93;;;;;;;;;;5034754;28;20124;-73
2021/10/02 07:10:29;;;;;;;13.25;11.85;;;;;;;;;;5034072;28;20029;-73
2021/10/02 07:12:56;;;;;;;18.05;13.13;;;;;;;;;;5031638;28;20051;-73
2021/10/02 07:15:22;;;;;;;17.80;13.23;;;;;;;;;;5031550;28;20029;-73
2021/10/02 07:17:48;;;;;;;15.93;12.90;;;;;;;;;;5030932;28;20497;-73
2021/10/02 07:20:15;;;;;;;18.67;13.30;;;;;;;;;;5029353;28;20033;-72
2021/10/02 07:22:42;;;;;;;13.00;11.63;;;;;;;;;;5033140;28;20078;-73
2021/10/02 07:25:17;;;;;;;14.30;12.02;;;;;;;;;;5035117;28;20508;-73
2021/10/02 07:27:44;;;;;;;12.70;11.38;;;;;;;;;;5032118;28;20026;-72
2021/10/02 07:30:13;;;;;;;14.25;12.02;;;;;;;;;;5034328;28;20042;-74
2021/10/02 07:32:39;;;;;;;12.18;10.32;;;;;;;;;;5032356;28;20505;-72
2021/10/02 07:35:06;;;;;;;12.45;11.15;;;;;;;;;;5032084;28;20037;-73
2021/10/02 07:37:32;;;;;;;19.15;12.52;;;;;;;;;;5031688;28;20030;-72
2021/10/02 07:39:59;;;;;;;18.02;13.05;;;;;;;;;;5033657;28;20055;-73
2021/10/02 07:42:25;;;;;;;20.60;14.65;;;;;;;;;;5031605;28;20053;-73
2021/10/02 07:44:58;;;;;;;22.02;13.65;;;;;;;;;;5032257;28;20048;-73
2021/10/02 07:47:25;;;;;;;16.23;14.05;;;;;;;;;;5033190;28;20032;-74
2021/10/02 07:49:51;;;;;;;16.75;13.20;;;;;;;;;;5035479;28;20021;-74
2021/10/02 07:52:18;;;;;;;15.48;12.48;;;;;;;;;;5032137;28;20527;-73
2021/10/02 07:54:47;;;;;;;15.45;12.70;;;;;;;;;;5032276;28;20029;-74
2021/10/02 07:57:13;;;;;;;17.33;11.93;;;;;;;;;;5032992;28;20037;-74
2021/10/02 07:59:40;;;;;;;15.40;11.30;;;;;;;;;;5033591;28;20040;-73
2021/10/02 08:02:06;;;;;;;14.15;12.02;;;;;;;;;;5031597;28;20136;-73
2021/10/02 08:04:33;;;;;;;15.15;11.10;;;;;;;;;;5034720;28;20385;-73
2021/10/02 08:06:59;;;;;;;13.65;10.80;;;;;;;;;;5031927;28;20648;-73
2021/10/02 08:09:26;;;;;;;11.95;10.65;;;;;;;;;;5031786;28;20033;-72
2021/10/02 08:11:52;;;;;;;12.65;10.90;;;;;;;;;;5031302;28;20375;-73
2021/10/02 08:14:18;;;;;;;13.70;11.07;;;;;;;;;;5033338;28;20053;-73
2021/10/02 08:16:46;;;;;;;13.75;10.80;;;;;;;;;;5030685;28;20025;-74
2021/10/02 08:19:13;;;;;;;13.98;11.20;;;;;;;;;;5031228;28;20025;-72
2021/10/02 08:21:40;;;;;;;18.77;14.90;;;;;;;;;;5012870;28;20017;-73
2021/10/02 08:24:06;;;;;;;17.00;13.68;;;;;;;;;;5032446;28;20043;-73
2021/10/02 08:26:33;;;;;;;14.35;11.75;;;;;;;;;;5036104;28;20428;-74
2021/10/02 08:29:00;;;;;;;16.40;12.35;;;;;;;;;;5029239;28;20022;-72
2021/10/02 08:31:26;;;;;;;12.68;10.95;;;;;;;;;;5021665;28;20201;-73
2021/10/02 08:33:52;;;;;;;14.15;10.50;;;;;;;;;;5028697;28;20376;-73
2021/10/02 08:36:19;;;;;;;14.05;10.98;;;;;;;;;;5029609;28;20049;-73
2021/10/02 08:38:45;;;;;;;12.35;11.00;;;;;;;;;;5031345;28;20025;-73
2021/10/02 08:41:11;;;;;;;15.50;11.63;;;;;;;;;;5028193;28;20044;-73
2021/10/02 08:43:39;;;;;;;15.43;13.77;;;;;;;;;;5032425;28;20040;-73
2021/10/02 08:46:09;;;;;;;14.35;11.80;;;;;;;;;;5031607;28;20032;-72
2021/10/02 08:48:35;;;;;;;14.75;12.82;;;;;;;;;;5027800;28;20036;-74
2021/10/02 08:51:03;;;;;;;15.18;13.00;;;;;;;;;;5012317;28;20028;-75
2021/10/02 08:53:30;;;;;;;13.85;11.98;;;;;;;;;;5024899;28;20013;-76
2021/10/02 08:55:57;;;;;;;14.73;12.32;;;;;;;;;;5029663;28;20025;-74
2021/10/02 08:58:23;;;;;;;16.63;11.82;;;;;;;;;;5034457;28;20025;-75
2021/10/02 09:00:50;;;;;;;13.27;11.27;;;;;;;;;;5014851;28;20033;-75
2021/10/02 09:03:16;;;;;;;14.23;10.82;;;;;;;;;;5029632;28;20033;-75
2021/10/02 09:05:42;;;;;;;12.05;10.75;;;;;;;;;;5030517;28;20128;-75
2021/10/02 09:08:09;;;;;;;13.35;11.75;;;;;;;;;;5031504;28;20624;-74
2021/10/02 09:10:35;;;;;;;12.73;11.38;;;;;;;;;;5030970;28;20033;-74
2021/10/02 09:13:02;;;;;;;11.88;10.57;;;;;;;;;;5030679;28;20324;-75
2021/10/02 09:15:28;;;;;;;13.32;11.80;;;;;;;;;;5029702;28;20024;-74
2021/10/02 09:17:56;;;;;;;11.52;10.18;;;;;;;;;;5031982;28;20090;-76
2021/10/02 09:20:23;;;;;;;12.73;10.27;;;;;;;;;;5031116;28;20021;-74
2021/10/02 09:23:08;;;;;;;14.85;11.18;;;;;;;;;;5032801;28;20025;-74
2021/10/02 09:25:35;;;;;;;11.57;10.05;;;;;;;;;;5034324;28;20045;-74
2021/10/02 09:28:12;;;;;;;11.27;9.43;;;;;;;;;;5028273;28;20040;-74
2021/10/02 09:30:42;;;;;;;12.98;10.02;;;;;;;;;;5034372;28;20032;-74
2021/10/02 09:33:22;;;;;;;11.85;9.65;;;;;;;;;;5035442;28;20064;-73
2021/10/02 09:35:49;;;;;;;11.95;9.23;;;;;;;;;;5034603;28;20017;-74
2021/10/02 09:38:16;;;;;;;10.90;9.15;;;;;;;;;;5035974;28;20143;-74
2021/10/02 09:40:50;;;;;;;9.77;8.85;;;;;;;;;;5035075;28;20031;-74
2021/10/02 09:43:16;;;;;;;12.50;8.70;;;;;;;;;;5033752;28;20467;-74
2021/10/02 09:45:42;;;;;;;10.77;9.43;;;;;;;;;;5039608;28;20039;-74
2021/10/02 09:48:10;;;;;;;9.38;8.38;;;;;;;;;;5034472;28;20523;-74
2021/10/02 09:50:38;;;;;;;11.63;8.80;;;;;;;;;;5035422;28;20047;-75
2021/10/02 09:53:08;;;;;;;12.88;9.50;;;;;;;;;;5030258;28;20021;-75
2021/10/02 09:55:38;;;;;;;10.77;9.52;;;;;;;;;;5036132;28;20630;-73
2021/10/02 09:58:05;;;;;;;10.75;8.90;;;;;;;;;;5035514;28;20082;-73
2021/10/02 10:00:38;;;;;;;12.38;9.15;;;;;;;;;;5039947;28;20024;-72
2021/10/02 10:03:06;;;;;;;10.82;8.93;;;;;;;;;;5038781;28;20029;-74
2021/10/02 10:05:34;;;;;;;13.73;9.20;;;;;;;;;;5034931;28;20144;-75
2021/10/02 10:08:01;;;;;;;9.40;8.40;;;;;;;;;;5036106;28;20117;-73
2021/10/02 10:10:31;;;;;;;12.07;8.75;;;;;;;;;;5039442;28;20025;-72
2021/10/02 10:12:57;;;;;;;9.20;8.18;;;;;;;;;;5033144;28;20060;-72
2021/10/02 10:15:26;;;;;;;10.23;8.35;;;;;;;;;;5033441;28;20033;-73
2021/10/02 10:17:52;;;;;;;9.60;7.57;;;;;;;;;;5034736;28;20128;-72
2021/10/02 10:20:19;;;;;;;10.23;7.90;;;;;;;;;;5035202;28;20516;-72
2021/10/02 10:22:55;;;;;;;9.10;7.70;;;;;;;;;;5032777;28;20075;-72
2021/10/02 10:25:21;;;;;;;10.20;7.15;;;;;;;;;;5035056;28;20029;-73
2021/10/02 10:27:48;;;;;;;10.75;7.88;;;;;;;;;;5029695;28;20109;-72
2021/10/02 10:30:16;;;;;;;10.35;7.93;;;;;;;;;;5035321;28;20029;-72
2021/10/02 10:33:01;;;;;;;10.65;7.50;;;;;;;;;;5032277;28;20500;-72
2021/10/02 10:35:29;;;;;;;14.27;7.28;;;;;;;;;;5034318;28;20061;-71
2021/10/02 10:37:55;;;;;;;9.18;7.15;;;;;;;;;;5038741;28;20024;-72
2021/10/02 10:40:21;;;;;;;8.48;6.70;;;;;;;;;;5032352;28;20018;-73
2021/10/02 10:42:48;;;;;;;10.98;7.35;;;;;;;;;;5037558;28;20033;-72
2021/10/02 10:45:14;;;;;;;8.05;7.25;;;;;;;;;;5032603;28;20044;-72
2021/10/02 10:47:40;;;;;;;10.65;7.50;;;;;;;;;;5036831;28;20112;-72
2021/10/02 10:50:07;;;;;;;8.18;7.38;;;;;;;;;;5029094;28;20033;-72
2021/10/02 10:52:41;;;;;;;15.23;8.45;;;;;;;;;;5029831;28;20079;-73
2021/10/02 10:55:18;;;;;;;9.15;6.68;;;;;;;;;;5030324;28;20055;-72
2021/10/02 10:57:45;;;;;;;9.80;8.80;;;;;;;;;;5030202;28;20029;-72
2021/10/02 11:00:14;;;;;;;11.75;8.98;;;;;;;;;;5036497;28;20048;-73
2021/10/02 11:02:43;;;;;;;10.93;9.38;;;;;;;;;;5035445;28;20078;-71
2021/10/02 11:05:33;;;;;;;12.60;10.27;;;;;;;;;;5031230;28;20057;-72
2021/10/02 11:07:59;;;;;;;10.98;9.80;;;;;;;;;;5022099;28;20042;-71
2021/10/02 11:10:44;;;;;;;14.32;11.07;;;;;;;;;;5034906;28;20123;-72
2021/10/02 11:13:18;;;;;;;11.23;10.00;;;;;;;;;;5029201;28;20026;-72
2021/10/02 11:15:45;;;;;;;11.95;10.57;;;;;;;;;;5028747;28;20033;-73
2021/10/02 11:18:30;;;;;;;11.60;10.40;;;;;;;;;;5031334;28;20043;-72
2021/10/02 11:21:03;;;;;;;11.48;10.27;;;;;;;;;;5030429;28;20070;-73
2021/10/02 11:23:48;;;;;;;13.23;9.82;;;;;;;;;;5013222;28;20053;-73
2021/10/02 11:26:24;;;;;;;11.65;10.45;;;;;;;;;;5030146;28;20557;-72
2021/10/02 11:28:59;;;;;;;10.65;9.65;;;;;;;;;;5029408;28;20029;-73
2021/10/02 11:31:25;;;;;;;10.95;8.77;;;;;;;;;;5030408;28;20022;-71
2021/10/02 11:33:53;;;;;;;14.95;11.10;;;;;;;;;;5032271;28;20032;-72
2021/10/02 11:36:28;;;;;;;15.57;11.73;;;;;;;;;;5032349;28;20074;-73
2021/10/02 11:39:10;;;;;;;15.85;11.27;;;;;;;;;;5028276;28;20091;-73
2021/10/02 11:41:42;;;;;;;17.80;11.68;;;;;;;;;;5029887;28;20045;-72
2021/10/02 11:44:08;;;;;;;16.73;11.88;;;;;;;;;;5029683;28;20524;-73
2021/10/02 11:46:35;;;;;;;14.77;12.45;;;;;;;;;;5029743;28;20111;-72
2021/10/02 11:49:13;;;;;;;13.63;11.75;;;;;;;;;;5027436;28;20028;-73
2021/10/02 11:51:39;;;;;;;18.73;12.38;;;;;;;;;;5025390;28;20052;-73
2021/10/02 11:54:08;;;;;;;14.85;11.77;;;;;;;;;;5028709;28;20029;-73
2021/10/02 11:56:35;;;;;;;16.50;11.18;;;;;;;;;;5030741;28;20651;-73
2021/10/02 11:59:02;;;;;;;12.02;9.93;;;;;;;;;;5028433;28;20083;-72
2021/10/02 12:01:32;;;;;;;13.30;9.60;;;;;;;;;;5028061;28;20033;-72
2021/10/02 12:04:05;;;;;;;10.60;9.50;;;;;;;;;;5028811;28;20045;-72
2021/10/02 12:06:32;;;;;;;11.20;9.32;;;;;;;;;;5025215;28;20682;-73
2021/10/02 12:08:59;;;;;;;12.57;9.25;;;;;;;;;;5032256;28;20099;-72
2021/10/02 12:11:26;;;;;;;11.50;10.00;;;;;;;;;;5028085;28;20033;-73
2021/10/02 12:13:54;;;;;;;11.55;8.88;;;;;;;;;;5031509;28;20075;-73
2021/10/02 12:16:30;;;;;;;11.20;8.45;;;;;;;;;;5027589;28;20394;-73
2021/10/02 12:19:05;;;;;;;9.43;8.52;;;;;;;;;;5028011;28;20101;-73
2021/10/02 12:21:33;;;;;;;12.23;9.13;;;;;;;;;;5027627;28;20040;-73
2021/10/02 12:24:17;;;;;;;10.40;9.15;;;;;;;;;;5029957;28;20032;-74
2021/10/02 12:26:43;;;;;;;9.20;7.90;;;;;;;;;;5029520;28;20044;-73
2021/10/02 12:29:11;;;;;;;11.63;5.95;;;;;;;;;;5031047;28;20104;-73
2021/10/02 12:31:56;;;;;;;11.63;4.22;;;;;;;;;;5027928;28;20025;-73
2021/10/02 12:34:30;;;;;;;12.32;4.53;;;;;;;;;;5028372;28;20056;-74
2021/10/02 12:36:58;;;;;;;13.02;5.82;;;;;;;;;;5029771;28;20068;-73
2021/10/02 12:39:26;;;;;;;20.33;6.05;;;;;;;;;;5031234;28;20025;-74
2021/10/02 12:41:53;;;;;;;16.10;6.05;;;;;;;;;;5028465;28;20152;-74
2021/10/02 12:44:30;;;;;;;26.25;7.68;;;;;;;;;;5015193;28;20028;-75
2021/10/02 12:46:57;;;;;;;16.90;6.63;;;;;;;;;;5028160;28;20029;-74
2021/10/02 12:49:24;;;;;;;19.70;6.57;;;;;;;;;;5030228;28;20025;-75
2021/10/02 12:51:50;;;;;;;29.27;6.68;;;;;;;;;;5030059;28;20041;-70
2021/10/02 12:54:21;;;;;;;18.33;6.15;;;;;;;;;;5031652;28;20043;-71
2021/10/02 12:56:56;;;;;;;16.75;6.13;;;;;;;;;;5030134;28;20048;-72
2021/10/02 12:59:22;;;;;;;16.20;6.05;;;;;;;;;;5024925;28;20040;-72
2021/10/02 13:01:52;;;;;;;16.27;6.18;;;;;;;;;;5032842;28;20029;-73
2021/10/02 13:04:19;;;;;;;12.65;6.13;;;;;;;;;;5032637;28;20069;-73
2021/10/02 13:06:49;;;;;;;16.80;7.32;;;;;;;;;;5032044;28;20091;-74
2021/10/02 13:09:15;;;;;;;13.95;6.03;;;;;;;;;;5032796;28;20029;-73
2021/10/02 13:11:41;;;;;;;13.98;7.03;;;;;;;;;;5033529;28;20488;-73
2021/10/02 13:14:07;;;;;;;19.48;7.53;;;;;;;;;;5015840;28;20033;-73
2021/10/02 13:16:34;;;;;;;13.70;6.28;;;;;;;;;;5032097;28;20094;-73
2021/10/02 13:19:00;;;;;;;12.98;5.95;;;;;;;;;;5024467;28;20670;-74
2021/10/02 13:21:26;;;;;;;13.35;6.50;;;;;;;;;;5028337;28;20487;-73
2021/10/02 13:23:52;;;;;;;11.43;6.32;;;;;;;;;;5030237;28;20021;-73
2021/10/02 13:26:20;;;;;;;14.00;6.63;;;;;;;;;;5029941;28;20433;-73
2021/10/02 13:28:56;;;;;;;14.15;6.22;;;;;;;;;;5034612;28;20029;-73
2021/10/02 13:31:23;;;;;;;10.82;6.05;;;;;;;;;;5032556;28;20090;-73
2021/10/02 13:33:51;;;;;;;14.25;6.03;;;;;;;;;;5034328;28;20074;-73
2021/10/02 13:36:30;;;;;;;10.60;5.57;;;;;;;;;;5028980;28;20036;-73
2021/10/02 13:39:13;;;;;;;12.60;6.28;;;;;;;;;;5032411;28;20111;-73
2021/10/02 13:41:40;;;;;;;12.05;5.80;;;;;;;;;;5031895;28;20406;-73
2021/10/02 13:44:06;;;;;;;13.25;6.68;;;;;;;;;;5033632;28;20025;-73
2021/10/02 13:46:34;;;;;;;12.88;7.18;;;;;;;;;;5031617;28;20076;-73
2021/10/02 13:49:01;;;;;;;14.23;6.93;;;;;;;;;;5014915;28;20037;-73
2021/10/02 13:51:28;;;;;;;11.55;6.68;;;;;;;;;;5029221;28;20036;-73
2021/10/02 13:53:54;;;;;;;13.63;6.60;;;;;;;;;;5034885;28;20503;-75
2021/10/02 13:56:20;;;;;;;9.90;6.13;;;;;;;;;;5034866;28;20032;-79
2021/10/02 13:58:47;;;;;;;12.55;6.28;;;;;;;;;;5038528;28;20611;-77
2021/10/02 14:01:13;;;;;;;13.63;7.25;;;;;;;;;;5038454;28;20377;-73
2021/10/02 14:03:39;;;;;;;16.95;7.15;;;;;;;;;;5038362;28;20039;-73
2021/10/02 14:06:05;;;;;;;9.63;6.50;;;;;;;;;;5014412;28;20041;-73
2021/10/02 14:08:32;;;;;;;10.65;6.70;;;;;;;;;;5014511;28;20052;-74
2021/10/02 14:10:58;;;;;;;10.30;7.00;;;;;;;;;;5032293;28;20228;-74
2021/10/02 14:13:25;;;;;;;15.60;7.47;;;;;;;;;;5032640;28;20029;-72
2021/10/02 14:15:52;;;;;;;17.15;8.40;;;;;;;;;;5034694;28;20528;-73
2021/10/02 14:18:18;;;;;;;12.65;7.47;;;;;;;;;;5035707;28;20468;-72
2021/10/02 14:20:44;;;;;;;13.70;7.80;;;;;;;;;;5031661;28;20420;-73
2021/10/02 14:23:10;;;;;;;15.32;8.30;;;;;;;;;;5033139;28;20469;-73
2021/10/02 14:25:36;;;;;;;12.15;7.68;;;;;;;;;;5032678;28;20029;-73
2021/10/02 14:28:03;;;;;;;11.77;7.95;;;;;;;;;;5034053;28;20384;-73
2021/10/02 14:30:29;;;;;;;19.05;9.82;;;;;;;;;;5033010;28;20025;-73
2021/10/02 14:32:55;;;;;;;19.33;9.07;;;;;;;;;;5032430;28;20359;-73
2021/10/02 14:35:22;;;;;;;15.40;9.85;;;;;;;;;;5035289;28;20085;-72
2021/10/02 14:37:48;;;;;;;17.65;8.75;;;;;;;;;;5032788;28;20587;-72
2021/10/02 14:40:14;;;;;;;15.70;9.23;;;;;;;;;;5034322;28;20021;-73
2021/10/02 14:42:43;;;;;;;13.55;8.10;;;;;;;;;;5031991;28;20144;-72
2021/10/02 14:45:10;;;;;;;15.43;9.07;;;;;;;;;;5032948;28;20466;-72
2021/10/02 14:47:36;;;;;;;14.77;8.40;;;;;;;;;;5033603;28;20052;-73
2021/10/02 14:50:04;;;;;;;15.82;10.15;;;;;;;;;;5023226;28;20108;-73
2021/10/02 14:52:34;;;;;;;14.35;8.57;;;;;;;;;;5022975;28;20083;-72
2021/10/02 14:55:01;;;;;;;16.77;9.52;;;;;;;;;;5021665;28;20067;-73
2021/10/02 14:57:27;;;;;;;19.80;9.13;;;;;;;;;;5005311;28;20032;-73
2021/10/02 14:59:54;;;;;;;15.65;7.65;;;;;;;;;;5030811;28;20056;-73
2021/10/02 15:02:24;;;;;;;11.65;5.47;;;;;;;;;;5034054;28;20033;-72
2021/10/02 15:04:50;;;;;;;10.00;3.60;;;;;;;;;;5031070;28;20029;-73
2021/10/02 15:07:19;;;;;;;19.73;4.88;;;;;;;;;;5033030;28;20678;-73
2021/10/02 15:09:46;;;;;;;15.63;3.67;;;;;;;;;;5034872;28;20066;-73
2021/10/02 15:12:12;;;;;;;11.98;3.58;;;;;;;;;;5031438;28;20025;-72
2021/10/02 15:14:38;;;;;;;14.07;3.90;;;;;;;;;;5034409;28;20493;-72
2021/10/02 15:17:04;;;;;;;18.42;4.38;;;;;;;;;;5030315;28;20500;-72
2021/10/02 15:19:31;;;;;;;11.93;3.47;;;;;;;;;;5031128;28;20416;-72